Time;durP1;ratioP1;P1;durP2;ratioP2;P2;SDS_P1;SDS_P2;PMS_P1;PMS_P2;Temp;Humidity;BMP_temperature;BMP_pressure;BME280_temperature;BME280_humidity;BME280_pressure;Samples;Min_cycle;Max_cycle;Signal;HPM_P1;HPM_P2
2021/04/02 00:00:49;;;;;;;1.77;1.50;;;21.90;48.30;;;;;;4986321;28;20496;-82
2021/04/02 00:03:17;;;;;;;1.70;1.60;;;21.90;47.60;;;;;;4988735;28;20165;-83
2021/04/02 00:05:43;;;;;;;1.90;1.60;;;21.90;48.30;;;;;;4987309;28;20409;-82
2021/04/02 00:08:10;;;;;;;1.97;1.60;;;21.90;48.10;;;;;;4988561;28;20415;-82
2021/04/02 00:10:55;;;;;;;1.60;1.37;;;21.90;48.30;;;;;;4987248;28;20235;-82
2021/04/02 00:13:23;;;;;;;1.70;1.60;;;21.90;47.70;;;;;;4990500;28;20405;-82
2021/04/02 00:15:49;;;;;;;1.63;1.53;;;21.90;47.90;;;;;;4988485;28;20421;-82
2021/04/02 00:18:17;;;;;;;1.60;1.40;;;21.90;48.20;;;;;;4986960;28;20432;-82
2021/04/02 00:20:43;;;;;;;2.00;1.60;;;21.90;48.20;;;;;;4987835;28;20485;-81
2021/04/02 00:23:09;;;;;;;1.60;1.30;;;21.90;48.10;;;;;;4984354;28;20440;-82
2021/04/02 00:25:35;;;;;;;2.00;1.50;;;21.90;48.10;;;;;;4989312;28;20245;-80
2021/04/02 00:28:05;;;;;;;2.47;2.00;;;21.90;48.20;;;;;;4990989;28;20424;-82
2021/04/02 00:30:47;;;;;;;2.03;1.83;;;21.90;47.80;;;;;;4987849;28;20181;-82
2021/04/02 00:33:15;;;;;;;1.57;1.47;;;21.90;48.50;;;;;;4986171;28;21000;-82
2021/04/02 00:35:42;;;;;;;1.70;1.60;;;21.90;47.90;;;;;;4986530;28;20429;-82
2021/04/02 00:38:09;;;;;;;1.80;1.50;;;21.90;48.10;;;;;;4988359;28;20436;-81
2021/04/02 00:40:36;;;;;;;1.33;1.23;;;21.90;48.00;;;;;;4988049;28;20461;-82
2021/04/02 00:43:02;;;;;;;1.47;1.37;;;21.90;48.30;;;;;;4990028;28;20452;-82
2021/04/02 00:45:28;;;;;;;1.77;1.50;;;21.90;47.90;;;;;;4992373;28;20420;-82
2021/04/02 00:47:55;;;;;;;1.80;1.50;;;21.90;48.90;;;;;;5006528;28;20414;-82
2021/04/02 00:50:48;;;;;;;1.83;1.57;;;21.90;47.90;;;;;;4992428;28;20204;-82
2021/04/02 00:53:21;;;;;;;1.73;1.50;;;21.90;47.60;;;;;;4991752;28;20405;-82
2021/04/02 00:55:49;;;;;;;3.10;1.20;;;21.90;47.90;;;;;;4992526;28;20398;-82
2021/04/02 00:58:18;;;;;;;1.77;1.57;;;21.90;47.90;;;;;;4990784;28;20425;-82
2021/04/02 01:00:44;;;;;;;1.83;1.50;;;21.90;48.20;;;;;;5002131;28;20477;-82
2021/04/02 01:03:10;;;;;;;1.80;1.70;;;21.90;48.30;;;;;;4986605;28;20820;-81
2021/04/02 01:05:41;;;;;;;1.30;1.20;;;21.90;47.90;;;;;;4987258;28;20441;-81
2021/04/02 01:08:13;;;;;;;1.57;1.40;;;21.90;47.80;;;;;;4986171;28;20437;-82
2021/04/02 01:10:42;;;;;;;1.70;1.50;;;21.90;48.20;;;;;;4986176;28;20458;-82
2021/04/02 01:13:17;;;;;;;1.50;1.37;;;21.90;48.30;;;;;;4986305;28;20915;-82
2021/04/02 01:15:46;;;;;;;1.70;1.60;;;21.90;47.70;;;;;;4987379;28;20408;-82
2021/04/02 01:18:34;;;;;;;1.60;1.50;;;21.90;48.20;;;;;;4988436;28;20414;-82
2021/04/02 01:21:25;;;;;;;1.40;1.30;;;21.90;47.70;;;;;;4988562;28;20429;-82
2021/04/02 01:23:58;;;;;;;1.40;1.30;;;21.90;47.70;;;;;;4984801;28;20440;-82
2021/04/02 01:26:31;;;;;;;2.10;1.93;;;21.90;49.00;;;;;;4987159;28;20425;-82
2021/04/02 01:29:11;;;;;;;1.30;1.20;;;21.90;47.70;;;;;;4985875;28;20420;-82
2021/04/02 01:31:39;;;;;;;1.80;1.70;;;21.80;48.20;;;;;;4969945;29;20481;-81
2021/04/02 01:34:06;;;;;;;1.50;1.40;;;21.90;47.90;;;;;;4970556;28;20414;-82
2021/04/02 01:36:34;;;;;;;1.20;1.00;;;21.90;48.00;;;;;;4969272;28;20433;-82
2021/04/02 01:39:00;;;;;;;1.80;1.57;;;21.90;47.90;;;;;;4969731;29;20450;-82
2021/04/02 01:41:27;;;;;;;1.77;1.50;;;21.90;48.60;;;;;;4984755;28;20485;-82
2021/04/02 01:44:00;;;;;;;1.50;1.10;;;21.90;48.20;;;;;;4970493;28;20449;-81
2021/04/02 01:46:27;;;;;;;1.50;1.40;;;21.90;47.90;;;;;;4989455;28;20505;-81
2021/04/02 01:48:56;;;;;;;1.43;1.33;;;21.90;47.90;;;;;;4972630;28;20418;-83
2021/04/02 01:51:23;;;;;;;1.60;1.30;;;21.90;48.00;;;;;;4988477;28;20469;-83
2021/04/02 01:53:50;;;;;;;1.57;1.47;;;21.90;48.60;;;;;;4988869;28;20422;-83
2021/04/02 01:56:18;;;;;;;1.40;1.30;;;21.90;48.00;;;;;;4973096;29;20433;-83
2021/04/02 01:58:52;;;;;;;1.93;1.40;;;21.90;48.00;;;;;;4971275;28;20462;-83
2021/04/02 02:01:22;;;;;;;1.73;1.50;;;21.90;47.80;;;;;;4987966;28;20414;-83
2021/04/02 02:03:52;;;;;;;1.43;1.33;;;21.90;48.20;;;;;;4988085;28;20411;-83
2021/04/02 02:06:21;;;;;;;2.00;1.70;;;21.90;47.90;;;;;;4988956;28;20418;-82
2021/04/02 02:08:48;;;;;;;1.70;1.60;;;21.90;47.90;;;;;;4987259;28;20460;-83
2021/04/02 02:11:17;;;;;;;2.53;1.90;;;21.80;48.10;;;;;;4972519;28;20931;-83
2021/04/02 02:13:54;;;;;;;1.63;1.53;;;21.90;48.00;;;;;;4973288;29;20409;-83
2021/04/02 02:16:22;;;;;;;1.37;1.27;;;21.90;47.80;;;;;;4972632;28;20428;-83
2021/04/02 02:18:57;;;;;;;1.63;1.40;;;21.90;47.90;;;;;;4972885;28;20454;-82
2021/04/02 02:21:23;;;;;;;1.57;1.43;;;21.90;47.80;;;;;;4969958;29;20409;-82
2021/04/02 02:23:49;;;;;;;1.60;1.50;;;21.90;48.20;;;;;;4967781;28;20518;-82
2021/04/02 02:26:16;;;;;;;1.53;1.43;;;21.90;48.40;;;;;;4969645;28;20424;-82
2021/04/02 02:28:43;;;;;;;2.20;1.40;;;21.90;47.90;;;;;;4969720;28;20864;-82
2021/04/02 02:31:10;;;;;;;1.90;1.40;;;21.90;47.80;;;;;;4970108;28;20418;-82
2021/04/02 02:33:36;;;;;;;1.70;1.50;;;21.90;48.00;;;;;;4984712;28;20457;-82
2021/04/02 02:36:03;;;;;;;1.50;1.40;;;21.90;48.00;;;;;;4969618;29;20403;-82
2021/04/02 02:38:32;;;;;;;1.53;1.43;;;21.90;47.80;;;;;;4969853;29;20827;-82
2021/04/02 02:40:58;;;;;;;1.93;1.13;;;21.90;48.00;;;;;;4969722;28;20461;-83
2021/04/02 02:43:24;;;;;;;1.53;1.43;;;21.90;48.00;;;;;;4970258;28;20437;-82
2021/04/02 02:45:50;;;;;;;1.30;1.20;;;21.90;47.90;;;;;;4970461;28;20406;-82
2021/04/02 02:48:16;;;;;;;1.50;1.17;;;21.90;48.60;;;;;;4969576;28;20409;-82
2021/04/02 02:50:49;;;;;;;1.47;1.33;;;21.90;48.20;;;;;;4984350;28;20273;-82
2021/04/02 02:53:19;;;;;;;1.43;1.30;;;21.90;47.90;;;;;;4968569;28;20481;-82
2021/04/02 02:55:46;;;;;;;1.40;1.20;;;21.90;47.90;;;;;;4966644;28;20422;-82
2021/04/02 02:58:15;;;;;;;1.37;1.27;;;21.90;47.90;;;;;;4968849;29;20417;-82
2021/04/02 03:00:44;;;;;;;2.10;1.60;;;21.90;47.80;;;;;;4968466;28;20537;-83
2021/04/02 03:03:14;;;;;;;1.37;1.27;;;21.90;48.00;;;;;;4968134;28;20887;-82
2021/04/02 03:05:42;;;;;;;1.33;1.20;;;21.90;47.80;;;;;;4981804;28;20409;-82
2021/04/02 03:08:11;;;;;;;1.77;1.30;;;22.10;48.00;;;;;;4989051;28;20409;-82
2021/04/02 03:10:38;;;;;;;1.80;1.40;;;21.90;47.90;;;;;;5004807;28;20447;-82
2021/04/02 03:13:06;;;;;;;1.50;1.20;;;21.90;47.80;;;;;;4989658;28;20437;-82
2021/04/02 03:15:33;;;;;;;1.50;1.37;;;21.90;47.90;;;;;;4989439;28;20783;-82
2021/04/02 03:18:06;;;;;;;1.33;1.20;;;21.90;48.00;;;;;;4987513;28;20476;-82
2021/04/02 03:20:36;;;;;;;1.60;1.50;;;21.50;47.50;;;;;;4990164;28;20785;-82
2021/04/02 03:23:04;;;;;;;1.50;1.37;;;21.90;48.10;;;;;;4988161;28;20531;-82
2021/04/02 03:25:31;;;;;;;1.40;1.30;;;21.90;47.90;;;;;;4987313;28;20421;-82
2021/04/02 03:27:57;;;;;;;1.57;1.47;;;21.90;47.90;;;;;;4989062;28;20409;-82
2021/04/02 03:30:25;;;;;;;1.50;1.10;;;21.90;47.80;;;;;;4984964;28;20429;-82
2021/04/02 03:32:56;;;;;;;1.17;1.07;;;21.90;48.00;;;;;;4983110;28;20456;-82
2021/04/02 03:35:24;;;;;;;1.70;1.43;;;21.90;48.10;;;;;;4983401;28;20420;-82
2021/04/02 03:37:51;;;;;;;1.30;1.10;;;21.90;48.00;;;;;;4999582;28;20424;-81
2021/04/02 03:40:21;;;;;;;1.33;1.20;;;21.90;47.90;;;;;;4984145;28;20494;-81
2021/04/02 03:42:51;;;;;;;1.60;1.50;;;22.00;48.10;;;;;;4984949;28;20413;-81
2021/04/02 03:45:17;;;;;;;1.63;1.30;;;21.90;47.90;;;;;;4984530;28;20440;-81
2021/04/02 03:47:45;;;;;;;1.20;1.10;;;21.90;48.70;;;;;;4985614;28;20429;-82
2021/04/02 03:50:14;;;;;;;2.13;1.50;;;21.90;47.70;;;;;;4985442;28;20444;-82
2021/04/02 03:52:46;;;;;;;1.77;1.43;;;21.90;47.90;;;;;;4984244;28;20433;-82
2021/04/02 03:55:14;;;;;;;2.30;1.80;;;21.90;47.80;;;;;;4986373;28;20413;-82
2021/04/02 03:57:41;;;;;;;1.23;1.13;;;21.90;48.40;;;;;;4985117;28;20417;-82
2021/04/02 04:00:45;;;;;;;3.00;1.40;;;21.90;48.10;;;;;;4986434;28;20963;-82
2021/04/02 04:03:13;;;;;;;2.03;1.50;;;21.90;47.70;;;;;;4988054;28;20420;-82
2021/04/02 04:05:40;;;;;;;1.10;1.00;;;21.90;47.80;;;;;;4987940;28;20453;-82
2021/04/02 04:08:11;;;;;;;1.43;1.30;;;21.90;47.90;;;;;;4988166;28;20421;-82
2021/04/02 04:10:38;;;;;;;1.57;1.47;;;21.90;48.00;;;;;;4988073;28;20465;-82
2021/04/02 04:13:04;;;;;;;1.30;1.20;;;21.90;48.10;;;;;;4987110;28;20425;-82
2021/04/02 04:15:31;;;;;;;1.47;1.20;;;21.90;48.50;;;;;;4970210;28;21002;-82
2021/04/02 04:17:58;;;;;;;1.33;1.23;;;21.90;48.10;;;;;;4970145;28;20484;-82
2021/04/02 04:20:24;;;;;;;1.30;1.13;;;21.90;48.10;;;;;;4986508;28;20467;-81
2021/04/02 04:22:51;;;;;;;1.97;1.50;;;21.90;48.70;;;;;;4986119;28;20417;-82
2021/04/02 04:25:22;;;;;;;1.50;1.23;;;21.90;48.20;;;;;;4969529;28;20488;-82
2021/04/02 04:27:49;;;;;;;2.30;1.40;;;21.60;47.70;;;;;;4985946;28;20433;-82
2021/04/02 04:30:18;;;;;;;2.90;1.23;;;21.90;48.00;;;;;;4969577;28;20421;-82
2021/04/02 04:32:44;;;;;;;1.40;1.30;;;21.90;48.50;;;;;;4969375;28;20429;-82
2021/04/02 04:35:14;;;;;;;1.60;1.50;;;21.90;48.30;;;;;;4969689;28;20437;-82
2021/04/02 04:37:41;;;;;;;1.40;1.23;;;21.90;48.10;;;;;;4986022;28;20425;-81
2021/04/02 04:40:09;;;;;;;2.10;1.80;;;21.90;48.00;;;;;;4988786;28;20519;-82
2021/04/02 04:42:36;;;;;;;1.60;1.20;;;21.90;48.20;;;;;;4988640;28;20413;-82
2021/04/02 04:45:06;;;;;;;1.60;1.50;;;21.90;47.90;;;;;;4988597;28;20424;-82
2021/04/02 04:47:32;;;;;;;1.47;1.30;;;22.00;48.00;;;;;;4989894;28;20421;-83
2021/04/02 04:49:58;;;;;;;1.67;1.37;;;21.90;48.30;;;;;;4991948;28;20923;-82
2021/04/02 04:52:28;;;;;;;1.53;1.23;;;21.90;48.50;;;;;;4991589;28;20240;-81
2021/04/02 04:54:54;;;;;;;1.70;1.60;;;21.90;47.90;;;;;;4993446;28;20178;-83
2021/04/02 04:57:21;;;;;;;1.30;1.20;;;21.90;48.10;;;;;;4992358;28;20433;-82
2021/04/02 04:59:50;;;;;;;1.33;1.23;;;21.90;48.10;;;;;;4993041;28;20801;-83
2021/04/02 05:02:18;;;;;;;2.17;1.80;;;22.00;48.00;;;;;;4991329;28;20505;-82
2021/04/02 05:04:45;;;;;;;2.53;1.27;;;22.00;48.00;;;;;;4991330;28;20444;-82
2021/04/02 05:07:13;;;;;;;1.60;1.50;;;22.00;48.00;;;;;;4991636;28;20481;-82
2021/04/02 05:09:41;;;;;;;2.40;1.30;;;22.00;48.00;;;;;;4988889;28;20567;-82
2021/04/02 05:12:09;;;;;;;1.77;1.30;;;22.00;48.00;;;;;;4988591;28;20433;-82
2021/04/02 05:14:37;;;;;;;1.53;1.30;;;22.00;48.00;;;;;;4991239;28;20774;-82
2021/04/02 05:17:06;;;;;;;1.40;1.30;;;22.00;48.10;;;;;;4989780;28;20424;-82
2021/04/02 05:19:34;;;;;;;1.30;1.20;;;22.00;48.20;;;;;;4991454;28;20539;-83
2021/04/02 05:22:00;;;;;;;1.97;1.20;;;22.00;48.20;;;;;;4991192;28;20440;-82
2021/04/02 05:24:25;;;;;;;1.37;1.20;;;22.00;48.40;;;;;;4991539;28;20488;-82
2021/04/02 05:26:51;;;;;;;1.20;1.03;;;22.00;49.20;;;;;;4991080;28;20234;-82
2021/04/02 05:29:17;;;;;;;1.40;1.30;;;22.00;48.10;;;;;;4990874;28;20233;-82
2021/04/02 05:31:44;;;;;;;1.57;1.30;;;22.10;48.00;;;;;;4989931;28;20178;-82
2021/04/02 05:34:10;;;;;;;1.20;1.10;;;22.00;48.10;;;;;;4990017;28;20962;-82
2021/04/02 05:36:36;;;;;;;1.40;1.20;;;22.00;48.40;;;;;;4989522;28;20563;-82
2021/04/02 05:39:01;;;;;;;1.73;1.23;;;22.00;48.00;;;;;;4990542;28;20205;-82
2021/04/02 05:41:37;;;;;;;1.23;1.13;;;22.00;48.80;;;;;;4991591;28;20197;-82
2021/04/02 05:44:09;;;;;;;1.30;1.17;;;22.10;48.10;;;;;;4991182;28;20428;-82
2021/04/02 05:46:37;;;;;;;1.20;1.10;;;22.00;48.10;;;;;;4991005;28;20413;-83
2021/04/02 05:49:05;;;;;;;1.23;1.13;;;22.10;48.00;;;;;;4990354;28;20484;-83
2021/04/02 05:51:32;;;;;;;1.40;1.10;;;22.00;48.00;;;;;;4990046;28;20445;-82
2021/04/02 05:53:59;;;;;;;1.40;1.20;;;22.00;48.30;;;;;;4991341;28;20440;-82
2021/04/02 05:56:25;;;;;;;1.20;1.10;;;22.00;48.10;;;;;;4990509;28;20421;-82
2021/04/02 05:58:52;;;;;;;1.50;1.30;;;22.00;47.90;;;;;;4989501;28;20460;-81
2021/04/02 06:01:19;;;;;;;1.30;1.20;;;22.00;48.00;;;;;;4990912;28;20428;-81
2021/04/02 06:03:45;;;;;;;1.90;1.20;;;22.10;47.90;;;;;;4989495;28;20417;-81
2021/04/02 06:06:13;;;;;;;1.20;1.10;;;22.10;48.30;;;;;;4988966;28;20421;-82
2021/04/02 06:08:44;;;;;;;1.87;1.30;;;22.10;48.10;;;;;;4989718;28;20440;-82
2021/04/02 06:11:11;;;;;;;1.30;1.00;;;22.10;48.20;;;;;;4989488;28;20416;-81
2021/04/02 06:13:37;;;;;;;1.53;1.43;;;22.10;47.90;;;;;;4988500;28;20557;-81
2021/04/02 06:16:03;;;;;;;1.30;1.10;;;22.10;48.60;;;;;;4988422;28;20423;-81
2021/04/02 06:18:29;;;;;;;1.40;1.30;;;22.40;48.90;;;;;;4989314;28;20417;-82
2021/04/02 06:20:55;;;;;;;1.57;1.30;;;22.10;48.40;;;;;;4987196;28;20433;-82
2021/04/02 06:23:26;;;;;;;1.43;1.10;;;22.10;48.00;;;;;;4987703;28;20193;-81
2021/04/02 06:25:57;;;;;;;1.30;1.20;;;22.10;47.80;;;;;;4989916;28;20448;-82
2021/04/02 06:28:26;;;;;;;1.00;0.80;;;22.10;48.20;;;;;;4987916;28;20485;-82
2021/04/02 06:31:08;;;;;;;1.40;1.27;;;22.10;48.30;;;;;;4987768;28;20417;-82
2021/04/02 06:33:41;;;;;;;1.10;1.00;;;22.10;47.80;;;;;;4988398;28;20423;-82
2021/04/02 06:36:14;;;;;;;1.53;1.20;;;22.10;47.80;;;;;;4985242;28;20432;-81
2021/04/02 06:38:42;;;;;;;1.20;1.10;;;22.10;48.70;;;;;;4985863;28;20418;-82
2021/04/02 06:41:12;;;;;;;1.23;1.10;;;22.10;48.00;;;;;;4985926;28;20468;-82
2021/04/02 06:43:46;;;;;;;1.20;1.10;;;21.70;47.70;;;;;;4987874;28;20489;-82
2021/04/02 06:46:19;;;;;;;1.00;0.90;;;22.10;48.30;;;;;;4987695;28;20425;-82
2021/04/02 06:48:44;;;;;;;1.77;1.37;;;22.10;48.10;;;;;;4988752;28;20413;-82
2021/04/02 06:51:14;;;;;;;1.20;1.10;;;22.10;48.80;;;;;;4987646;28;20432;-83
2021/04/02 06:53:42;;;;;;;1.60;1.23;;;22.10;48.20;;;;;;4987177;28;20205;-82
2021/04/02 06:56:10;;;;;;;1.60;1.30;;;22.10;48.00;;;;;;4988674;28;20420;-82
2021/04/02 06:58:45;;;;;;;1.23;1.13;;;22.10;48.00;;;;;;4988332;28;20429;-82
2021/04/02 07:01:16;;;;;;;1.20;1.10;;;22.10;48.20;;;;;;4987595;28;20412;-82
2021/04/02 07:03:44;;;;;;;1.20;0.90;;;22.10;48.00;;;;;;4987418;28;20445;-81
2021/04/02 07:06:11;;;;;;;1.30;1.13;;;22.10;48.10;;;;;;4988189;28;20409;-81
2021/04/02 07:08:43;;;;;;;1.10;1.00;;;22.10;48.00;;;;;;4987482;28;20420;-82
2021/04/02 07:11:11;;;;;;;1.10;1.00;;;22.10;48.00;;;;;;5001048;28;20435;-83
2021/04/02 07:13:53;;;;;;;1.27;1.17;;;22.10;48.50;;;;;;5007268;28;20431;-82
2021/04/02 07:16:20;;;;;;;1.50;1.00;;;22.10;47.80;;;;;;5006873;28;20487;-82
2021/04/02 07:18:52;;;;;;;1.40;1.30;;;22.10;48.20;;;;;;5007134;28;20416;-82
2021/04/02 07:21:20;;;;;;;1.30;0.90;;;22.10;47.90;;;;;;4990299;28;20493;-82
2021/04/02 07:23:46;;;;;;;1.30;1.20;;;22.10;48.00;;;;;;5008630;28;20420;-82
2021/04/02 07:26:13;;;;;;;1.20;1.00;;;22.10;48.40;;;;;;5008670;28;20408;-82
2021/04/02 07:28:45;;;;;;;1.20;1.10;;;22.10;48.10;;;;;;4991457;28;20181;-82
2021/04/02 07:31:12;;;;;;;1.20;1.10;;;22.10;48.00;;;;;;4986498;28;20468;-83
2021/04/02 07:33:42;;;;;;;1.30;1.10;;;22.10;48.00;;;;;;4987002;28;20417;-84
2021/04/02 07:36:13;;;;;;;1.17;1.00;;;22.10;48.00;;;;;;4988721;28;20491;-83
2021/04/02 07:38:58;;;;;;;1.10;0.87;;;22.10;48.20;;;;;;4989144;28;20410;-84
2021/04/02 07:41:26;;;;;;;1.40;1.10;;;22.10;48.30;;;;;;4988751;28;20421;-84
2021/04/02 07:43:58;;;;;;;1.40;1.20;;;22.10;48.60;;;;;;4988739;28;20793;-83
2021/04/02 07:46:34;;;;;;;1.40;1.10;;;22.10;48.30;;;;;;4988983;28;20413;-83
2021/04/02 07:49:10;;;;;;;1.20;0.93;;;22.10;47.90;;;;;;5006215;28;20416;-84
2021/04/02 07:51:53;;;;;;;1.30;1.20;;;22.10;48.30;;;;;;4989999;28;20437;-84
2021/04/02 07:54:21;;;;;;;1.10;1.00;;;22.10;48.20;;;;;;4988310;28;20460;-84
2021/04/02 08:10:19;;;;;;;1.30;1.00;;;22.10;47.90;;;;;;5029397;28;20471;-82
2021/04/02 08:12:45;;;;;;;1.20;1.10;;;22.00;48.10;;;;;;5012917;28;20559;-83
2021/04/02 08:15:16;;;;;;;1.30;1.10;;;22.10;48.60;;;;;;5012129;28;20411;-81
2021/04/02 08:17:49;;;;;;;1.10;0.97;;;22.10;48.30;;;;;;5013657;28;20712;-82
2021/04/02 08:20:19;;;;;;;1.10;1.00;;;22.10;48.60;;;;;;5027919;28;20484;-84
2021/04/02 08:22:52;;;;;;;1.40;1.20;;;22.10;48.00;;;;;;5027805;28;20419;-83
2021/04/02 08:25:22;;;;;;;1.10;1.00;;;22.10;48.00;;;;;;5010500;28;20411;-83
2021/04/02 08:27:56;;;;;;;1.30;1.17;;;22.10;48.00;;;;;;5011763;28;20419;-83
2021/04/02 08:30:23;;;;;;;1.10;0.93;;;22.10;49.10;;;;;;5027886;28;20408;-82
2021/04/02 08:32:56;;;;;;;1.50;1.20;;;22.10;49.40;;;;;;5027751;28;20419;-83
2021/04/02 08:35:24;;;;;;;1.60;1.40;;;22.10;48.80;;;;;;5028104;28;20395;-83
2021/04/02 08:38:04;;;;;;;1.20;1.00;;;22.10;48.30;;;;;;5062520;28;20441;-83
2021/04/02 08:40:37;;;;;;;1.27;1.17;;;22.10;47.80;;;;;;5069285;28;20452;-82
2021/04/02 08:43:18;;;;;;;;;;;;;;;;;;;;;
2021/04/02 08:45:44;;;;;;;1.10;1.00;;;22.10;48.50;;;;;;5070363;28;20432;-83
2021/04/02 08:48:29;;;;;;;1.47;1.23;;;22.10;49.10;;;;;;5053964;28;20417;-83
2021/04/02 08:54:51;;;;;;;1.57;1.10;;;22.10;48.00;;;;;;4985996;28;20432;-83
2021/04/02 08:57:17;;;;;;;1.00;0.90;;;22.00;47.70;;;;;;5006504;28;20396;-82
2021/04/02 08:59:47;;;;;;;1.10;0.90;;;22.10;48.70;;;;;;5012093;28;20502;-82
2021/04/02 09:02:14;;;;;;;1.23;0.97;;;22.10;48.10;;;;;;4995149;28;20515;-82
2021/04/02 09:04:42;;;;;;;1.10;0.90;;;22.10;48.50;;;;;;4995292;28;20444;-82
2021/04/02 09:07:08;;;;;;;1.30;1.10;;;22.10;48.00;;;;;;4995249;28;20426;-82
2021/04/02 09:09:35;;;;;;;1.10;0.90;;;22.50;48.50;;;;;;4995205;28;20440;-82
2021/04/02 09:12:09;;;;;;;1.33;1.20;;;22.10;48.10;;;;;;5011225;28;20496;-83
2021/04/02 09:14:40;;;;;;;1.63;1.10;;;22.20;47.90;;;;;;5010997;28;20408;-82
2021/04/02 09:17:14;;;;;;;1.40;1.20;;;22.10;47.90;;;;;;4994942;28;20480;-83
2021/04/02 09:19:44;;;;;;;1.20;1.00;;;22.10;48.20;;;;;;5013987;28;20464;-83
2021/04/02 09:22:10;;;;;;;1.30;1.20;;;22.10;48.20;;;;;;5012230;28;20412;-83
2021/04/02 09:24:39;;;;;;;1.10;0.90;;;22.10;48.70;;;;;;5012860;28;20401;-83
2021/04/02 09:27:10;;;;;;;1.10;0.90;;;22.20;48.00;;;;;;4997350;28;20219;-83
2021/04/02 09:29:36;;;;;;;1.30;1.10;;;22.10;48.40;;;;;;5013488;28;20424;-82
2021/04/02 09:32:04;;;;;;;1.10;0.93;;;22.10;48.60;;;;;;5056746;28;20428;-81
2021/04/02 09:34:30;;;;;;;1.27;1.17;;;22.10;47.90;;;;;;5075102;28;20179;-82
2021/04/02 09:36:57;;;;;;;1.07;0.80;;;22.20;48.20;;;;;;5055446;28;20445;-82
2021/04/02 09:39:30;;;;;;;1.20;1.00;;;22.20;48.80;;;;;;5072719;28;20469;-82
2021/04/02 09:42:01;;;;;;;1.07;0.90;;;22.20;49.40;;;;;;5072398;28;20397;-83
2021/04/02 09:44:38;;;;;;;1.10;1.00;;;22.00;48.10;;;;;;5054035;28;20440;-82
2021/04/02 09:47:12;;;;;;;1.50;1.30;;;22.20;47.90;;;;;;5070839;28;20432;-82
2021/04/02 09:49:38;;;;;;;1.20;1.10;;;22.20;47.90;;;;;;5072653;28;20393;-83
2021/04/02 09:52:05;;;;;;;1.70;1.33;;;22.20;48.00;;;;;;5071751;28;20456;-82
2021/04/02 09:54:32;;;;;;;1.20;0.90;;;22.20;48.20;;;;;;5053303;28;20414;-84
2021/04/02 09:57:02;;;;;;;1.30;0.93;;;22.20;48.70;;;;;;5070341;28;20410;-84
2021/04/02 09:59:28;;;;;;;1.20;1.00;;;22.20;48.10;;;;;;5052403;28;20457;-84
2021/04/02 10:01:53;;;;;;;1.00;0.90;;;22.20;48.40;;;;;;5070348;28;20959;-83
2021/04/02 10:04:20;;;;;;;1.10;1.00;;;22.20;48.40;;;;;;5069301;28;20182;-83
2021/04/02 10:06:49;;;;;;;1.80;1.10;;;22.20;48.10;;;;;;5070119;28;20167;-84
2021/04/02 10:09:15;;;;;;;1.20;0.97;;;22.20;48.20;;;;;;5070017;28;20432;-84
2021/04/02 10:11:45;;;;;;;1.10;1.00;;;22.20;48.20;;;;;;5051855;28;20421;-84
2021/04/02 10:14:12;;;;;;;1.20;1.00;;;22.20;48.10;;;;;;5070570;28;20394;-84
2021/04/02 10:16:39;;;;;;;1.30;1.00;;;22.20;48.10;;;;;;5068264;28;20440;-84
2021/04/02 10:19:05;;;;;;;1.20;1.00;;;22.20;47.90;;;;;;5036426;28;20453;-83
2021/04/02 10:21:33;;;;;;;1.00;0.87;;;22.20;48.00;;;;;;5072527;28;20402;-84
2021/04/02 10:23:59;;;;;;;1.20;1.00;;;22.20;48.00;;;;;;5072909;28;20410;-84
2021/04/02 10:26:26;;;;;;;0.90;0.70;;;22.20;49.00;;;;;;5053354;28;20409;-84
2021/04/02 10:28:53;;;;;;;1.20;1.00;;;22.20;48.00;;;;;;5055068;28;20449;-83
2021/04/02 10:31:19;;;;;;;1.20;1.10;;;22.20;48.80;;;;;;5037296;28;20410;-84
2021/04/02 10:33:46;;;;;;;1.10;0.93;;;22.20;49.10;;;;;;5070471;28;20444;-84
2021/04/02 10:36:15;;;;;;;1.13;1.00;;;22.20;48.00;;;;;;5054623;28;20183;-84
2021/04/02 10:38:42;;;;;;;1.20;1.00;;;22.20;48.00;;;;;;5052865;28;20449;-84
2021/04/02 10:41:08;;;;;;;1.00;0.83;;;22.20;49.10;;;;;;5070850;28;20405;-84
2021/04/02 10:43:34;;;;;;;1.03;0.83;;;22.20;48.40;;;;;;5070657;28;20403;-84
2021/04/02 10:46:00;;;;;;;1.47;1.37;;;22.20;48.40;;;;;;5052744;28;20414;-84
2021/04/02 10:48:29;;;;;;;1.20;1.00;;;22.20;48.10;;;;;;5052371;28;20432;-84
2021/04/02 10:50:58;;;;;;;1.20;1.10;;;22.20;48.10;;;;;;5036407;28;20471;-83
2021/04/02 10:53:25;;;;;;;1.30;0.90;;;22.20;48.30;;;;;;5053663;28;20437;-85
2021/04/02 10:55:52;;;;;;;1.07;0.93;;;22.20;48.20;;;;;;5069611;28;20417;-84
2021/04/02 10:58:18;;;;;;;1.10;0.87;;;22.00;48.40;;;;;;5051446;28;20535;-84
2021/04/02 11:00:44;;;;;;;1.07;0.93;;;22.20;48.30;;;;;;5069382;28;20453;-83
2021/04/02 11:03:10;;;;;;;1.20;0.90;;;22.20;48.60;;;;;;5070680;28;20658;-83
2021/04/02 11:05:38;;;;;;;1.30;1.00;;;22.20;48.10;;;;;;5068760;28;20432;-83
2021/04/02 11:08:04;;;;;;;1.07;0.97;;;22.20;48.10;;;;;;5051712;28;20405;-83
2021/04/02 11:10:30;;;;;;;1.47;1.00;;;22.30;48.10;;;;;;5067844;28;20432;-83
2021/04/02 11:12:56;;;;;;;1.40;0.80;;;22.20;48.10;;;;;;5068232;28;20401;-83
2021/04/02 11:15:25;;;;;;;1.30;1.00;;;22.20;48.80;;;;;;5065440;28;20918;-82
2021/04/02 11:17:52;;;;;;;1.13;1.00;;;22.20;48.30;;;;;;5065886;28;20170;-82
2021/04/02 11:20:20;;;;;;;1.20;1.10;;;22.20;49.10;;;;;;5066411;28;20453;-82
2021/04/02 11:22:47;;;;;;;1.10;1.00;;;22.20;48.40;;;;;;5066957;28;20501;-83
2021/04/02 11:25:15;;;;;;;1.20;0.90;;;22.20;48.10;;;;;;5069642;28;20409;-83
2021/04/02 11:27:42;;;;;;;1.23;0.90;;;22.20;48.00;;;;;;5070452;28;20413;-84
2021/04/02 11:30:13;;;;;;;1.10;0.90;;;21.60;47.70;;;;;;5069575;28;20484;-84
2021/04/02 11:32:40;;;;;;;1.00;0.90;;;22.20;48.20;;;;;;5068484;28;20641;-84
2021/04/02 11:35:07;;;;;;;1.00;0.80;;;22.20;48.20;;;;;;5068821;28;20414;-84
2021/04/02 11:37:37;;;;;;;1.20;0.90;;;22.20;48.10;;;;;;5068853;28;20405;-84
2021/04/02 11:40:10;;;;;;;0.93;0.83;;;22.00;47.90;;;;;;5069487;28;20449;-84
2021/04/02 11:42:36;;;;;;;1.20;0.90;;;22.20;47.80;;;;;;5069931;28;20394;-83
2021/04/02 11:45:04;;;;;;;0.97;0.80;;;22.20;48.30;;;;;;5068753;28;20420;-84
2021/04/02 11:47:32;;;;;;;1.30;0.97;;;22.20;48.60;;;;;;5068953;28;20409;-83
2021/04/02 11:49:58;;;;;;;1.23;0.90;;;22.20;48.40;;;;;;5067922;28;20410;-83
2021/04/02 11:52:25;;;;;;;1.00;0.90;;;22.30;49.10;;;;;;5068170;28;20433;-82
2021/04/02 11:54:50;;;;;;;1.10;0.90;;;22.20;48.10;;;;;;5066529;28;20406;-82
2021/04/02 11:57:17;;;;;;;1.10;0.80;;;22.20;48.70;;;;;;5067450;28;20408;-82
2021/04/02 11:59:44;;;;;;;0.90;0.70;;;22.30;48.90;;;;;;5051279;28;20206;-82
2021/04/02 12:02:10;;;;;;;1.00;0.77;;;22.30;48.90;;;;;;5035029;28;20516;-82
2021/04/02 12:04:36;;;;;;;1.20;1.07;;;22.20;48.50;;;;;;5068525;28;20420;-83
2021/04/02 12:07:02;;;;;;;1.20;0.90;;;22.30;49.40;;;;;;5050208;28;20405;-83
2021/04/02 12:09:28;;;;;;;1.00;0.90;;;22.30;49.40;;;;;;5051345;28;20436;-84
2021/04/02 12:11:54;;;;;;;0.97;0.77;;;22.30;48.70;;;;;;5051041;28;20512;-83
2021/04/02 12:14:40;;;;;;;1.17;1.00;;;22.30;49.50;;;;;;5069242;28;20413;-83
2021/04/02 12:17:05;;;;;;;1.30;1.07;;;22.30;47.90;;;;;;5069002;28;20155;-84
2021/04/02 12:19:31;;;;;;;1.40;0.80;;;22.20;48.90;;;;;;5034783;28;20461;-84
2021/04/02 12:22:00;;;;;;;1.00;0.90;;;22.30;48.60;;;;;;5070738;28;20418;-84
2021/04/02 12:24:25;;;;;;;0.90;0.73;;;22.30;48.70;;;;;;5072582;28;20190;-84
2021/04/02 12:30:18;;;;;;;0.93;0.80;;;22.30;47.90;;;;;;5072176;28;20173;-84
2021/04/02 12:32:44;;;;;;;1.20;1.10;;;22.30;49.00;;;;;;5072088;28;20989;-83
2021/04/02 12:35:12;;;;;;;1.00;0.90;;;22.30;48.40;;;;;;5071364;28;20421;-83
2021/04/02 12:37:38;;;;;;;1.07;0.83;;;21.70;47.80;;;;;;5072511;28;20919;-84
2021/04/02 12:40:10;;;;;;;1.03;0.87;;;22.30;49.10;;;;;;5054277;28;20449;-83
2021/04/02 12:42:36;;;;;;;1.07;0.90;;;22.30;48.50;;;;;;5054430;28;20902;-83
2021/04/02 12:45:06;;;;;;;0.90;0.70;;;22.30;49.80;;;;;;5054576;28;20485;-84
2021/04/02 12:47:35;;;;;;;1.00;0.80;;;22.30;48.20;;;;;;5072398;28;20838;-84
2021/04/02 12:50:00;;;;;;;1.10;0.90;;;22.30;48.10;;;;;;5053312;28;20488;-82
2021/04/02 12:52:26;;;;;;;1.10;0.80;;;22.30;48.80;;;;;;5050141;28;20511;-82
2021/04/02 12:54:52;;;;;;;0.90;0.70;;;22.30;48.60;;;;;;5068968;28;20198;-82
2021/04/02 12:57:18;;;;;;;1.20;0.90;;;22.30;48.60;;;;;;5050956;28;20580;-82
2021/04/02 12:59:43;;;;;;;1.10;0.90;;;22.30;48.60;;;;;;5066290;28;20203;-81
2021/04/02 13:02:10;;;;;;;1.00;0.80;;;22.30;48.70;;;;;;5069229;28;20698;-82
2021/04/02 13:04:37;;;;;;;1.30;1.00;;;22.30;49.00;;;;;;5067250;28;20187;-82
2021/04/02 13:07:04;;;;;;;0.97;0.77;;;22.30;48.70;;;;;;5066959;28;20501;-82
2021/04/02 13:09:30;;;;;;;0.93;0.80;;;22.30;48.80;;;;;;5050083;28;20450;-81
2021/04/02 13:11:55;;;;;;;1.10;0.90;;;22.30;48.40;;;;;;5067149;28;20409;-82
2021/04/02 13:14:21;;;;;;;1.00;0.90;;;22.30;48.60;;;;;;5066219;28;20183;-82
2021/04/02 13:16:47;;;;;;;1.00;0.90;;;22.30;49.10;;;;;;5067105;28;20175;-82